sensor_id;sensor_type;location;lat;lon;timestamp;pressure;altitude;pressure_sealevel;temperature;humidity
69796;BME280;57073;45.650;9.612;2023-05-03T00:00:34;99602.69;;;14.29;62.14
69796;BME280;57073;45.650;9.612;2023-05-03T00:05:34;99606.31;;;14.39;61.23
69796;BME280;57073;45.650;9.612;2023-05-03T00:10:35;99605.25;;;14.40;60.57
69796;BME280;57073;45.650;9.612;2023-05-03T00:15:35;99595.41;;;14.34;59.62
69796;BME280;57073;45.650;9.612;2023-05-03T00:20:36;99587.78;;;14.31;59.15
69796;BME280;57073;45.650;9.612;2023-05-03T00:25:36;99588.72;;;14.20;58.82
69796;BME280;57073;45.650;9.612;2023-05-03T00:30:36;99587.06;;;14.14;59.20
69796;BME280;57073;45.650;9.612;2023-05-03T00:35:37;99583.00;;;14.16;58.75
69796;BME280;57073;45.650;9.612;2023-05-03T00:40:37;99577.81;;;14.15;59.55
69796;BME280;57073;45.650;9.612;2023-05-03T00:45:38;99576.56;;;14.00;59.30
69796;BME280;57073;45.650;9.612;2023-05-03T00:50:39;99569.38;;;13.89;59.18
69796;BME280;57073;45.650;9.612;2023-05-03T00:55:40;99580.75;;;13.86;59.10
69796;BME280;57073;45.650;9.612;2023-05-03T01:00:41;99575.16;;;13.76;59.86
69796;BME280;57073;45.650;9.612;2023-05-03T01:05:54;99569.81;;;13.81;59.50
69796;BME280;57073;45.650;9.612;2023-05-03T01:11:01;99572.94;;;13.73;59.97
69796;BME280;57073;45.650;9.612;2023-05-03T01:16:15;99575.66;;;13.73;60.27
69796;BME280;57073;45.650;9.612;2023-05-03T01:21:18;99570.69;;;13.64;60.93
69796;BME280;57073;45.650;9.612;2023-05-03T01:31:28;99567.13;;;13.64;61.46
69796;BME280;57073;45.650;9.612;2023-05-03T01:36:30;99576.59;;;13.61;61.42
69796;BME280;57073;45.650;9.612;2023-05-03T01:41:32;99579.94;;;13.68;61.61
69796;BME280;57073;45.650;9.612;2023-05-03T01:46:33;99576.03;;;13.59;61.95
69796;BME280;57073;45.650;9.612;2023-05-03T01:51:33;99582.56;;;13.63;61.68
69796;BME280;57073;45.650;9.612;2023-05-03T01:56:34;99582.00;;;13.61;62.22
69796;BME280;57073;45.650;9.612;2023-05-03T02:01:38;99586.88;;;13.59;62.28
69796;BME280;57073;45.650;9.612;2023-05-03T02:06:38;99586.66;;;13.66;61.84
69796;BME280;57073;45.650;9.612;2023-05-03T02:11:39;99589.91;;;13.63;62.45
69796;BME280;57073;45.650;9.612;2023-05-03T02:16:39;99591.84;;;13.67;62.39
69796;BME280;57073;45.650;9.612;2023-05-03T02:21:39;99589.69;;;13.70;61.40
69796;BME280;57073;45.650;9.612;2023-05-03T02:26:40;99587.81;;;13.70;61.75
69796;BME280;57073;45.650;9.612;2023-05-03T02:31:40;99581.56;;;13.70;61.75
69796;BME280;57073;45.650;9.612;2023-05-03T02:36:41;99586.38;;;13.62;61.22
69796;BME280;57073;45.650;9.612;2023-05-03T02:41:41;99587.09;;;13.58;62.19
69796;BME280;57073;45.650;9.612;2023-05-03T02:46:41;99585.31;;;13.46;62.36
69796;BME280;57073;45.650;9.612;2023-05-03T02:51:42;99585.09;;;13.48;62.13
69796;BME280;57073;45.650;9.612;2023-05-03T02:56:42;99585.56;;;13.45;62.50
69796;BME280;57073;45.650;9.612;2023-05-03T03:01:42;99584.84;;;13.33;62.69
69796;BME280;57073;45.650;9.612;2023-05-03T03:06:43;99588.13;;;13.35;62.07
69796;BME280;57073;45.650;9.612;2023-05-03T03:11:43;99583.94;;;13.27;62.50
69796;BME280;57073;45.650;9.612;2023-05-03T03:16:46;99585.75;;;13.21;62.67
69796;BME280;57073;45.650;9.612;2023-05-03T03:21:47;99586.81;;;13.03;62.86
69796;BME280;57073;45.650;9.612;2023-05-03T03:26:47;99585.78;;;13.04;62.91
69796;BME280;57073;45.650;9.612;2023-05-03T03:31:47;99595.19;;;13.02;62.78
69796;BME280;57073;45.650;9.612;2023-05-03T03:36:48;99594.03;;;12.98;63.10
69796;BME280;57073;45.650;9.612;2023-05-03T03:41:48;99595.84;;;12.92;62.81
69796;BME280;57073;45.650;9.612;2023-05-03T03:46:49;99595.44;;;12.83;63.20
69796;BME280;57073;45.650;9.612;2023-05-03T03:51:49;99600.84;;;12.83;63.29
69796;BME280;57073;45.650;9.612;2023-05-03T03:56:49;99601.13;;;12.70;63.91
69796;BME280;57073;45.650;9.612;2023-05-03T04:01:51;99611.28;;;12.63;63.99
69796;BME280;57073;45.650;9.612;2023-05-03T04:06:51;99611.59;;;12.66;63.76
69796;BME280;57073;45.650;9.612;2023-05-03T04:11:52;99617.25;;;12.65;63.99
69796;BME280;57073;45.650;9.612;2023-05-03T04:16:52;99627.56;;;12.68;63.58
69796;BME280;57073;45.650;9.612;2023-05-03T04:21:52;99624.88;;;12.68;63.62
69796;BME280;57073;45.650;9.612;2023-05-03T04:26:53;99633.41;;;12.60;64.20
69796;BME280;57073;45.650;9.612;2023-05-03T04:31:53;99639.75;;;12.53;63.89
69796;BME280;57073;45.650;9.612;2023-05-03T04:36:53;99650.56;;;12.53;63.89
69796;BME280;57073;45.650;9.612;2023-05-03T04:41:54;99645.00;;;12.72;63.57
69796;BME280;57073;45.650;9.612;2023-05-03T04:46:54;99654.38;;;12.81;63.19
69796;BME280;57073;45.650;9.612;2023-05-03T04:51:54;99659.81;;;12.98;63.30
69796;BME280;57073;45.650;9.612;2023-05-03T04:56:55;99660.59;;;13.10;63.60
69796;BME280;57073;45.650;9.612;2023-05-03T05:01:55;99665.09;;;13.22;63.56
69796;BME280;57073;45.650;9.612;2023-05-03T05:06:56;99663.63;;;13.31;62.82
69796;BME280;57073;45.650;9.612;2023-05-03T05:11:58;99669.19;;;13.58;61.90
69796;BME280;57073;45.650;9.612;2023-05-03T05:16:59;99671.06;;;13.75;61.09
69796;BME280;57073;45.650;9.612;2023-05-03T05:21:59;99677.41;;;13.97;59.83
69796;BME280;57073;45.650;9.612;2023-05-03T05:27:00;99676.31;;;13.98;59.58
69796;BME280;57073;45.650;9.612;2023-05-03T05:32:00;99674.25;;;14.05;59.32
69796;BME280;57073;45.650;9.612;2023-05-03T05:37:03;99682.47;;;14.33;58.50
69796;BME280;57073;45.650;9.612;2023-05-03T05:42:04;99677.44;;;15.18;56.42
69796;BME280;57073;45.650;9.612;2023-05-03T05:47:05;99689.59;;;15.75;55.22
69796;BME280;57073;45.650;9.612;2023-05-03T05:52:05;99693.56;;;16.00;52.95
69796;BME280;57073;45.650;9.612;2023-05-03T05:57:06;99698.09;;;16.31;51.49
69796;BME280;57073;45.650;9.612;2023-05-03T06:02:13;99687.16;;;16.84;51.84
69796;BME280;57073;45.650;9.612;2023-05-03T06:07:14;99687.50;;;17.29;50.76
69796;BME280;57073;45.650;9.612;2023-05-03T06:12:15;99700.28;;;17.59;48.56
69796;BME280;57073;45.650;9.612;2023-05-03T06:17:16;99699.50;;;17.84;47.32
69796;BME280;57073;45.650;9.612;2023-05-03T06:22:16;99700.53;;;18.04;47.61
69796;BME280;57073;45.650;9.612;2023-05-03T06:27:16;99698.53;;;18.35;46.24
69796;BME280;57073;45.650;9.612;2023-05-03T06:32:17;99700.75;;;18.28;45.55
69796;BME280;57073;45.650;9.612;2023-05-03T06:37:18;99703.59;;;18.73;46.41
69796;BME280;57073;45.650;9.612;2023-05-03T06:42:18;99709.84;;;18.78;45.25
69796;BME280;57073;45.650;9.612;2023-05-03T06:47:19;99707.75;;;19.10;44.54
69796;BME280;57073;45.650;9.612;2023-05-03T06:52:20;99710.38;;;19.30;44.05
69796;BME280;57073;45.650;9.612;2023-05-03T06:57:21;99718.59;;;19.65;43.83
69796;BME280;57073;45.650;9.612;2023-05-03T07:02:21;99711.38;;;20.03;44.78
69796;BME280;57073;45.650;9.612;2023-05-03T07:07:22;99705.00;;;19.84;43.76
69796;BME280;57073;45.650;9.612;2023-05-03T07:12:22;99708.50;;;20.19;43.05
69796;BME280;57073;45.650;9.612;2023-05-03T07:17:26;99705.84;;;20.57;43.86
69796;BME280;57073;45.650;9.612;2023-05-03T07:22:27;99711.94;;;20.72;42.94
69796;BME280;57073;45.650;9.612;2023-05-03T07:27:27;99709.41;;;21.00;43.20
69796;BME280;57073;45.650;9.612;2023-05-03T07:32:27;99708.81;;;21.03;42.00
69796;BME280;57073;45.650;9.612;2023-05-03T07:37:28;99707.75;;;21.18;41.37
69796;BME280;57073;45.650;9.612;2023-05-03T07:42:28;99702.06;;;21.34;43.34
69796;BME280;57073;45.650;9.612;2023-05-03T07:47:29;99704.78;;;21.53;41.81
69796;BME280;57073;45.650;9.612;2023-05-03T07:52:31;99706.69;;;21.52;40.87
69796;BME280;57073;45.650;9.612;2023-05-03T07:57:34;99710.56;;;21.32;39.06
69796;BME280;57073;45.650;9.612;2023-05-03T08:02:35;99695.75;;;21.33;40.32
69796;BME280;57073;45.650;9.612;2023-05-03T08:07:36;99700.38;;;21.19;42.15
69796;BME280;57073;45.650;9.612;2023-05-03T08:12:36;99701.03;;;21.29;41.16
69796;BME280;57073;45.650;9.612;2023-05-03T08:17:44;99711.50;;;20.89;39.92
69796;BME280;57073;45.650;9.612;2023-05-03T08:22:44;99704.59;;;21.11;41.86
69796;BME280;57073;45.650;9.612;2023-05-03T08:27:45;99693.13;;;21.42;41.52
69796;BME280;57073;45.650;9.612;2023-05-03T08:32:46;99700.69;;;21.50;40.25
69796;BME280;57073;45.650;9.612;2023-05-03T08:37:47;99696.72;;;21.89;40.34
69796;BME280;57073;45.650;9.612;2023-05-03T08:42:47;99709.59;;;22.08;40.41
69796;BME280;57073;45.650;9.612;2023-05-03T08:47:53;99707.56;;;22.27;38.66
69796;BME280;57073;45.650;9.612;2023-05-03T08:52:54;99706.16;;;22.43;38.04
69796;BME280;57073;45.650;9.612;2023-05-03T08:57:55;99715.50;;;22.29;39.26
69796;BME280;57073;45.650;9.612;2023-05-03T09:02:57;99712.44;;;22.02;38.04
69796;BME280;57073;45.650;9.612;2023-05-03T09:08:10;99707.41;;;21.91;38.11
69796;BME280;57073;45.650;9.612;2023-05-03T09:13:16;99717.38;;;21.86;37.76
69796;BME280;57073;45.650;9.612;2023-05-03T09:18:18;99711.81;;;21.92;38.43
69796;BME280;57073;45.650;9.612;2023-05-03T09:23:29;99711.00;;;21.91;39.36
69796;BME280;57073;45.650;9.612;2023-05-03T09:28:40;99708.88;;;21.55;38.23
69796;BME280;57073;45.650;9.612;2023-05-03T09:33:41;99705.97;;;21.27;38.21
69796;BME280;57073;45.650;9.612;2023-05-03T09:38:41;99697.84;;;21.03;38.00
69796;BME280;57073;45.650;9.612;2023-05-03T09:43:49;99697.94;;;21.17;38.73
69796;BME280;57073;45.650;9.612;2023-05-03T09:48:50;99697.50;;;21.43;37.92
69796;BME280;57073;45.650;9.612;2023-05-03T09:53:55;99696.47;;;21.06;37.91
69796;BME280;57073;45.650;9.612;2023-05-03T09:58:55;99689.78;;;21.12;38.10
69796;BME280;57073;45.650;9.612;2023-05-03T10:03:59;99681.25;;;21.14;37.94
69796;BME280;57073;45.650;9.612;2023-05-03T10:09:14;99680.03;;;21.39;39.04
69796;BME280;57073;45.650;9.612;2023-05-03T10:14:20;99676.44;;;21.24;36.91
69796;BME280;57073;45.650;9.612;2023-05-03T10:24:27;99677.53;;;20.85;38.87
69796;BME280;57073;45.650;9.612;2023-05-03T10:34:36;99652.41;;;20.78;37.82
69796;BME280;57073;45.650;9.612;2023-05-03T10:39:43;99656.78;;;20.98;38.11
69796;BME280;57073;45.650;9.612;2023-05-03T10:44:53;99651.97;;;20.52;37.57
69796;BME280;57073;45.650;9.612;2023-05-03T10:55:22;99649.63;;;20.21;36.14
69796;BME280;57073;45.650;9.612;2023-05-03T11:00:36;99640.81;;;19.71;39.42
69796;BME280;57073;45.650;9.612;2023-05-03T11:05:37;99634.25;;;20.44;39.70
69796;BME280;57073;45.650;9.612;2023-05-03T11:10:39;99626.28;;;20.48;37.97
69796;BME280;57073;45.650;9.612;2023-05-03T11:15:40;99632.50;;;20.53;37.98
69796;BME280;57073;45.650;9.612;2023-05-03T11:20:41;99623.81;;;20.65;37.11
69796;BME280;57073;45.650;9.612;2023-05-03T11:25:41;99637.69;;;20.55;37.50
69796;BME280;57073;45.650;9.612;2023-05-03T11:30:41;99644.72;;;20.61;37.54
69796;BME280;57073;45.650;9.612;2023-05-03T11:35:42;99636.09;;;20.30;38.41
69796;BME280;57073;45.650;9.612;2023-05-03T11:40:43;99637.84;;;20.21;36.54
69796;BME280;57073;45.650;9.612;2023-05-03T11:45:44;99627.88;;;20.30;37.55
69796;BME280;57073;45.650;9.612;2023-05-03T11:55:49;99629.25;;;20.51;38.21
69796;BME280;57073;45.650;9.612;2023-05-03T12:00:55;99630.78;;;20.58;38.36
69796;BME280;57073;45.650;9.612;2023-05-03T12:05:55;99629.75;;;20.53;38.75
69796;BME280;57073;45.650;9.612;2023-05-03T12:10:56;99623.09;;;20.60;38.28
69796;BME280;57073;45.650;9.612;2023-05-03T12:15:58;99615.09;;;20.44;37.79
69796;BME280;57073;45.650;9.612;2023-05-03T12:21:02;99613.50;;;20.19;36.71
69796;BME280;57073;45.650;9.612;2023-05-03T12:26:03;99619.09;;;20.52;38.24
69796;BME280;57073;45.650;9.612;2023-05-03T12:31:03;99614.44;;;20.71;37.63
69796;BME280;57073;45.650;9.612;2023-05-03T12:36:04;99615.03;;;20.68;37.61
69796;BME280;57073;45.650;9.612;2023-05-03T12:41:04;99613.00;;;19.88;38.11
69796;BME280;57073;45.650;9.612;2023-05-03T12:46:05;99608.06;;;20.57;37.85
69796;BME280;57073;45.650;9.612;2023-05-03T12:51:05;99604.13;;;20.63;37.34
69796;BME280;57073;45.650;9.612;2023-05-03T12:56:06;99600.81;;;20.04;38.42
69796;BME280;57073;45.650;9.612;2023-05-03T13:01:06;99595.03;;;20.06;38.18
69796;BME280;57073;45.650;9.612;2023-05-03T13:06:07;99596.47;;;19.98;38.02
69796;BME280;57073;45.650;9.612;2023-05-03T13:11:07;99590.41;;;20.25;37.92
69796;BME280;57073;45.650;9.612;2023-05-03T13:16:08;99589.38;;;20.21;37.59
69796;BME280;57073;45.650;9.612;2023-05-03T13:21:09;99591.88;;;19.93;36.63
69796;BME280;57073;45.650;9.612;2023-05-03T13:26:10;99582.47;;;20.24;37.82
69796;BME280;57073;45.650;9.612;2023-05-03T13:31:10;99579.81;;;19.94;38.97
69796;BME280;57073;45.650;9.612;2023-05-03T13:36:10;99575.25;;;20.33;38.53
69796;BME280;57073;45.650;9.612;2023-05-03T13:41:11;99586.38;;;20.61;37.60
69796;BME280;57073;45.650;9.612;2023-05-03T13:46:11;99586.13;;;20.76;37.07
69796;BME280;57073;45.650;9.612;2023-05-03T13:51:12;99582.06;;;20.92;37.40
69796;BME280;57073;45.650;9.612;2023-05-03T13:56:13;99569.28;;;21.02;37.68
69796;BME280;57073;45.650;9.612;2023-05-03T14:01:13;99569.75;;;21.23;36.55
69796;BME280;57073;45.650;9.612;2023-05-03T14:06:14;99565.22;;;20.99;37.52
69796;BME280;57073;45.650;9.612;2023-05-03T14:11:16;99558.97;;;21.13;37.69
69796;BME280;57073;45.650;9.612;2023-05-03T14:16:18;99564.94;;;21.01;36.88
69796;BME280;57073;45.650;9.612;2023-05-03T14:21:19;99554.88;;;20.96;37.25
69796;BME280;57073;45.650;9.612;2023-05-03T14:26:20;99553.84;;;20.92;37.12
69796;BME280;57073;45.650;9.612;2023-05-03T14:31:21;99559.69;;;20.47;36.77
69796;BME280;57073;45.650;9.612;2023-05-03T14:36:21;99554.75;;;20.68;36.80
69796;BME280;57073;45.650;9.612;2023-05-03T14:41:22;99552.88;;;20.64;37.77
69796;BME280;57073;45.650;9.612;2023-05-03T14:46:22;99532.28;;;20.85;37.65
69796;BME280;57073;45.650;9.612;2023-05-03T14:51:23;99536.75;;;20.81;37.85
69796;BME280;57073;45.650;9.612;2023-05-03T14:56:23;99534.91;;;20.20;38.26
69796;BME280;57073;45.650;9.612;2023-05-03T15:01:23;99544.53;;;20.55;38.10
69796;BME280;57073;45.650;9.612;2023-05-03T15:06:28;99534.16;;;20.14;38.14
69796;BME280;57073;45.650;9.612;2023-05-03T15:11:30;99546.69;;;19.96;38.98
69796;BME280;57073;45.650;9.612;2023-05-03T15:16:31;99535.81;;;20.34;38.82
69796;BME280;57073;45.650;9.612;2023-05-03T15:21:43;99538.75;;;20.19;37.92
69796;BME280;57073;45.650;9.612;2023-05-03T15:26:43;99538.00;;;20.13;38.47
69796;BME280;57073;45.650;9.612;2023-05-03T15:31:44;99536.44;;;20.26;39.35
69796;BME280;57073;45.650;9.612;2023-05-03T15:36:45;99537.88;;;20.04;38.41
69796;BME280;57073;45.650;9.612;2023-05-03T15:41:45;99542.06;;;19.72;39.04
69796;BME280;57073;45.650;9.612;2023-05-03T15:46:46;99544.69;;;19.83;39.05
69796;BME280;57073;45.650;9.612;2023-05-03T15:51:46;99542.56;;;19.74;38.76
69796;BME280;57073;45.650;9.612;2023-05-03T15:56:47;99544.59;;;19.88;39.17
69796;BME280;57073;45.650;9.612;2023-05-03T16:01:49;99543.34;;;20.04;39.34
69796;BME280;57073;45.650;9.612;2023-05-03T16:06:50;99540.59;;;20.04;39.14
69796;BME280;57073;45.650;9.612;2023-05-03T16:11:50;99536.91;;;20.14;39.17
69796;BME280;57073;45.650;9.612;2023-05-03T16:16:51;99537.72;;;20.14;39.35
69796;BME280;57073;45.650;9.612;2023-05-03T16:21:52;99541.41;;;20.05;38.62
69796;BME280;57073;45.650;9.612;2023-05-03T16:26:52;99540.91;;;20.22;39.06
69796;BME280;57073;45.650;9.612;2023-05-03T16:31:54;99548.50;;;19.82;39.32
69796;BME280;57073;45.650;9.612;2023-05-03T16:36:54;99544.72;;;19.77;39.17
69796;BME280;57073;45.650;9.612;2023-05-03T16:41:55;99539.03;;;19.74;39.52
69796;BME280;57073;45.650;9.612;2023-05-03T16:46:55;99537.56;;;19.82;39.79
69796;BME280;57073;45.650;9.612;2023-05-03T16:51:55;99547.41;;;19.58;40.64
69796;BME280;57073;45.650;9.612;2023-05-03T16:56:56;99541.88;;;19.64;40.27
69796;BME280;57073;45.650;9.612;2023-05-03T17:01:58;99545.25;;;19.55;40.58
69796;BME280;57073;45.650;9.612;2023-05-03T17:06:58;99546.59;;;19.58;40.52
69796;BME280;57073;45.650;9.612;2023-05-03T17:11:59;99555.06;;;19.32;40.78
69796;BME280;57073;45.650;9.612;2023-05-03T17:17:01;99563.03;;;19.29;41.08
69796;BME280;57073;45.650;9.612;2023-05-03T17:22:01;99562.38;;;19.37;41.38
69796;BME280;57073;45.650;9.612;2023-05-03T17:27:01;99562.81;;;19.20;41.57
69796;BME280;57073;45.650;9.612;2023-05-03T17:32:02;99565.84;;;19.13;42.72
69796;BME280;57073;45.650;9.612;2023-05-03T17:37:02;99565.19;;;18.97;41.64
69796;BME280;57073;45.650;9.612;2023-05-03T17:42:03;99566.56;;;18.95;41.75
69796;BME280;57073;45.650;9.612;2023-05-03T17:47:03;99568.56;;;18.84;42.42
69796;BME280;57073;45.650;9.612;2023-05-03T17:52:03;99575.16;;;18.83;42.41
69796;BME280;57073;45.650;9.612;2023-05-03T17:57:04;99589.16;;;18.71;42.38
69796;BME280;57073;45.650;9.612;2023-05-03T18:02:04;99589.53;;;18.59;42.87
69796;BME280;57073;45.650;9.612;2023-05-03T18:07:05;99602.94;;;18.51;43.33
69796;BME280;57073;45.650;9.612;2023-05-03T18:12:05;99612.00;;;18.36;43.55
69796;BME280;57073;45.650;9.612;2023-05-03T18:17:06;99610.38;;;18.35;43.39
69796;BME280;57073;45.650;9.612;2023-05-03T18:22:06;99603.88;;;18.25;43.09
69796;BME280;57073;45.650;9.612;2023-05-03T18:27:07;99622.63;;;18.37;43.41
69796;BME280;57073;45.650;9.612;2023-05-03T18:32:08;99627.53;;;18.40;44.02
69796;BME280;57073;45.650;9.612;2023-05-03T18:37:08;99629.47;;;18.40;43.24
69796;BME280;57073;45.650;9.612;2023-05-03T18:42:09;99637.97;;;18.28;43.67
69796;BME280;57073;45.650;9.612;2023-05-03T18:47:09;99650.25;;;18.25;43.90
69796;BME280;57073;45.650;9.612;2023-05-03T18:52:11;99654.91;;;18.25;43.81
69796;BME280;57073;45.650;9.612;2023-05-03T18:57:12;99667.44;;;18.26;43.68
69796;BME280;57073;45.650;9.612;2023-05-03T19:02:12;99664.78;;;18.16;43.81
69796;BME280;57073;45.650;9.612;2023-05-03T19:07:13;99680.31;;;18.10;44.21
69796;BME280;57073;45.650;9.612;2023-05-03T19:12:13;99687.69;;;18.10;44.61
69796;BME280;57073;45.650;9.612;2023-05-03T19:17:14;99698.34;;;18.11;44.36
69796;BME280;57073;45.650;9.612;2023-05-03T19:22:14;99698.34;;;18.11;44.72
69796;BME280;57073;45.650;9.612;2023-05-03T19:27:14;99704.94;;;18.00;45.05
69796;BME280;57073;45.650;9.612;2023-05-03T19:32:16;99704.66;;;17.86;44.84
69796;BME280;57073;45.650;9.612;2023-05-03T19:37:16;99707.41;;;17.86;45.63
69796;BME280;57073;45.650;9.612;2023-05-03T19:42:17;99709.59;;;17.89;45.84
69796;BME280;57073;45.650;9.612;2023-05-03T19:47:17;99723.75;;;17.96;46.09
69796;BME280;57073;45.650;9.612;2023-05-03T19:52:17;99730.56;;;17.94;45.53
69796;BME280;57073;45.650;9.612;2023-05-03T19:57:18;99734.41;;;17.93;46.08
69796;BME280;57073;45.650;9.612;2023-05-03T20:02:18;99739.88;;;17.98;45.70
69796;BME280;57073;45.650;9.612;2023-05-03T20:07:19;99745.59;;;17.96;45.17
69796;BME280;57073;45.650;9.612;2023-05-03T20:12:19;99752.97;;;17.85;45.67
69796;BME280;57073;45.650;9.612;2023-05-03T20:17:19;99755.16;;;17.68;46.53
69796;BME280;57073;45.650;9.612;2023-05-03T20:22:20;99758.97;;;17.62;46.53
69796;BME280;57073;45.650;9.612;2023-05-03T20:27:20;99758.66;;;17.48;47.07
69796;BME280;57073;45.650;9.612;2023-05-03T20:32:21;99759.47;;;17.43;46.93
69796;BME280;57073;45.650;9.612;2023-05-03T20:42:22;99766.56;;;17.49;46.82
69796;BME280;57073;45.650;9.612;2023-05-03T20:47:22;99755.94;;;17.53;46.93
69796;BME280;57073;45.650;9.612;2023-05-03T20:52:23;99777.22;;;17.56;46.95
69796;BME280;57073;45.650;9.612;2023-05-03T20:57:23;99774.16;;;17.32;47.74
69796;BME280;57073;45.650;9.612;2023-05-03T21:07:24;99775.00;;;17.43;47.65
69796;BME280;57073;45.650;9.612;2023-05-03T21:12:24;99779.13;;;17.51;47.20
69796;BME280;57073;45.650;9.612;2023-05-03T21:17:25;99783.19;;;17.33;48.15
69796;BME280;57073;45.650;9.612;2023-05-03T21:22:25;99780.09;;;17.08;49.27
69796;BME280;57073;45.650;9.612;2023-05-03T21:27:25;99787.53;;;17.23;48.36
69796;BME280;57073;45.650;9.612;2023-05-03T21:32:26;99790.25;;;17.34;47.47
69796;BME280;57073;45.650;9.612;2023-05-03T21:37:26;99796.53;;;17.29;48.40
69796;BME280;57073;45.650;9.612;2023-05-03T21:42:26;99796.78;;;17.22;48.00
69796;BME280;57073;45.650;9.612;2023-05-03T21:47:28;99794.31;;;17.10;48.12
69796;BME280;57073;45.650;9.612;2023-05-03T21:52:28;99801.88;;;16.98;48.29
69796;BME280;57073;45.650;9.612;2023-05-03T21:57:29;99798.56;;;16.86;49.32
69796;BME280;57073;45.650;9.612;2023-05-03T22:02:29;99796.78;;;16.64;49.47
69796;BME280;57073;45.650;9.612;2023-05-03T22:07:29;99795.16;;;16.63;49.38
69796;BME280;57073;45.650;9.612;2023-05-03T22:12:31;99789.69;;;16.63;49.16
69796;BME280;57073;45.650;9.612;2023-05-03T22:17:32;99800.06;;;16.66;48.47
69796;BME280;57073;45.650;9.612;2023-05-03T22:22:32;99795.56;;;16.40;49.49
69796;BME280;57073;45.650;9.612;2023-05-03T22:27:32;99796.69;;;16.44;49.36
69796;BME280;57073;45.650;9.612;2023-05-03T22:32:33;99800.00;;;16.51;48.39
69796;BME280;57073;45.650;9.612;2023-05-03T22:37:33;99790.13;;;16.40;48.80
69796;BME280;57073;45.650;9.612;2023-05-03T22:42:34;99792.84;;;16.34;48.85
69796;BME280;57073;45.650;9.612;2023-05-03T22:47:34;99798.19;;;16.24;49.63
69796;BME280;57073;45.650;9.612;2023-05-03T22:52:35;99800.28;;;16.12;49.71
69796;BME280;57073;45.650;9.612;2023-05-03T22:57:35;99805.25;;;16.20;49.06
69796;BME280;57073;45.650;9.612;2023-05-03T23:02:36;99799.56;;;16.27;49.64
69796;BME280;57073;45.650;9.612;2023-05-03T23:07:36;99806.44;;;16.40;49.40
69796;BME280;57073;45.650;9.612;2023-05-03T23:12:37;99804.31;;;16.42;49.55
69796;BME280;57073;45.650;9.612;2023-05-03T23:17:38;99801.88;;;16.50;48.58
69796;BME280;57073;45.650;9.612;2023-05-03T23:22:38;99801.00;;;16.40;49.26
69796;BME280;57073;45.650;9.612;2023-05-03T23:27:40;99807.47;;;16.28;49.62
69796;BME280;57073;45.650;9.612;2023-05-03T23:32:40;99801.25;;;16.33;48.86
69796;BME280;57073;45.650;9.612;2023-05-03T23:37:40;99791.47;;;16.37;48.65
69796;BME280;57073;45.650;9.612;2023-05-03T23:42:41;99797.41;;;16.29;48.99
69796;BME280;57073;45.650;9.612;2023-05-03T23:47:42;99793.56;;;16.25;48.98
69796;BME280;57073;45.650;9.612;2023-05-03T23:52:42;99798.13;;;16.14;49.13
69796;BME280;57073;45.650;9.612;2023-05-03T23:57:43;99794.94;;;16.22;49.51
